Latest Weather Observations for PORTABLE BTSE (DFES)

IDW60801

Issued at 1:53 pm WST Saturday 10 December 2022 (issued every 10 minutes, with the page automatically refreshed every 10 minutes)

About weather observations | Map of weather stations | Latest weather observations for WA | Other Formats
Station Details ID: 250120 Name: DFES PORTABLE AWS E Lat: -16.42 Lon: 126.44 Height: 10.0 m

Portable automatic weather stations (PAWS) are operated by other organisations, such as Fire and Emergency Services, and are included here by agreement. Portable stations may be deployed to a location for a short period and their location may be subject to change without notice. Wind observations from these stations are provided from heights of either three (3) or ten (10) metres above ground level (AGL).

Data from the previous 72 hours. | See also: Recent months for locations in Western Australia
Date/Time
WST
Temp
°C
App
Temp
°C
Dew
Point
°C
Rel
Hum
%
Delta-T
°C
Wind Press
QNH
hPa
Press
MSL
hPa
Rain since
9am
mm
Dir  Spd
km/h
Gust
km/h
Spd
kts
Gust
kts
10/01:40pm 38.1 36.3 14.5 24 14.7 NE 17 22 9 12 - - 0.0
10/01:30pm 38.0 36.4 15.0 25 14.5 NNE 17 24 9 13 - - 0.0
10/01:20pm 38.4 36.2 14.8 24 14.8 NNE 20 28 11 15 - - 0.0
10/01:10pm 38.7 36.0 14.7 24 15.1 NE 22 33 12 18 - - 0.0
10/01:00pm 39.2 38.8 15.1 24 15.2 N 11 19 6 10 - - 0.0
10/12:50pm 38.7 35.8 14.1 23 15.3 NE 22 26 12 14 - - 0.0
10/12:40pm 38.3 36.7 15.0 25 14.7 N 17 22 9 12 - - 0.0
10/12:30pm 38.2 36.7 16.4 27 14.0 NNE 19 24 10 13 - - 0.0
10/12:20pm 38.0 37.3 16.3 27 13.9 NE 15 20 8 11 - - 0.0
10/12:10pm 38.3 38.8 16.6 28 14.0 SSE 9 19 5 10 - - 0.0
10/12:00pm 38.0 38.7 17.0 29 13.6 S 9 13 5 7 - - 0.0
10/11:50am 37.7 37.2 17.0 29 13.4 NE 15 22 8 12 - - 0.0
10/11:40am 38.0 38.3 17.8 30 13.2 ENE 13 20 7 11 - - 0.0
10/11:30am 37.9 37.4 15.9 27 14.0 ESE 13 15 7 8 - - 0.0
10/11:20am 38.0 38.2 16.7 28 13.7 E 11 15 6 8 - - 0.0
10/11:10am 37.7 38.1 16.4 28 13.6 S 9 15 5 8 - - 0.0
10/11:00am 37.2 37.4 16.7 29 13.2 SW 11 13 6 7 - - 0.0
10/10:50am 37.1 36.7 16.1 29 13.4 E 13 20 7 11 - - 0.0
10/10:40am 36.7 36.8 15.5 28 13.4 SSE 9 15 5 8 - - 0.0
10/10:30am 36.1 35.3 16.2 30 12.6 NNW 15 26 8 14 - - 0.0
10/10:20am 36.0 35.5 16.0 30 12.7 NNE 13 22 7 12 - - 0.0
10/10:10am 35.9 34.3 14.9 28 13.1 N 17 22 9 12 - - 0.0
10/10:00am 35.5 34.6 16.8 33 12.0 N 17 22 9 12 - - 0.0
10/09:50am 35.1 33.3 15.9 31 12.1 NNE 20 30 11 16 - - 0.0
10/09:40am 34.8 33.2 16.6 33 11.6 N 20 24 11 13 - - 0.0
10/09:30am 34.4 32.4 16.5 34 11.4 N 22 28 12 15 - - 0.0
10/09:20am 34.2 32.5 16.2 34 11.4 N 20 30 11 16 - - 0.0
10/09:10am 33.6 32.2 17.0 37 10.6 NNE 20 28 11 15 - - 0.0
10/09:00am 33.3 32.5 18.0 40 9.9 NNE 19 22 10 12 - - 0.2
10/08:50am 32.9 31.8 17.7 40 9.8 NNE 20 26 11 14 - - 0.2
10/08:40am 32.5 31.5 17.9 41 9.4 NNE 20 28 11 15 - - 0.2
10/08:30am 31.7 29.5 17.9 43 8.9 NNE 26 32 14 17 - - 0.2
10/08:20am 32.5 31.5 18.0 42 9.3 NNE 20 24 11 13 - - 0.2
10/08:10am 32.6 31.4 17.6 40 9.6 NNE 20 24 11 13 - - 0.2
10/08:00am 32.3 31.4 17.8 42 9.3 NE 19 22 10 12 - - 0.2
10/07:50am 32.9 33.0 18.3 42 9.5 NNE 15 19 8 10 - - 0.2
10/07:40am 32.7 31.9 18.1 42 9.4 ENE 19 20 10 11 - - 0.2
10/07:30am 32.2 33.0 17.4 41 9.4 NE 9 13 5 7 - - 0.2
10/07:20am 31.3 34.3 19.3 49 7.8 W 2 7 1 4 - - 0.2
10/07:10am 30.6 32.7 19.4 51 7.3 W 7 9 4 5 - - 0.2
10/07:00am 30.6 33.6 20.1 53 6.9 WNW 4 6 2 3 - - 0.2
10/06:50am 30.8 34.2 20.1 53 7.1 WNW 2 6 1 3 - - 0.2
10/06:40am 30.1 33.0 19.9 54 6.7 W 4 6 2 3 - - 0.2
10/06:30am 28.9 33.3 21.4 64 5.0 CALM 0 2 0 1 - - 0.2
10/06:20am 27.9 32.5 21.7 69 4.2 CALM 0 0 0 0 - - 0.2
10/06:10am 26.5 31.0 21.5 74 3.3 CALM 0 0 0 0 - - 0.2
10/06:00am 25.2 29.9 21.9 82 2.2 CALM 0 2 0 1 - - 0.2
10/05:50am 24.3 29.3 22.5 90 1.2 CALM 0 0 0 0 - - 0.2
10/05:40am 23.7 28.6 22.3 92 0.9 CALM 0 0 0 0 - - 0.2
10/05:30am 23.5 28.2 22.0 91 1.0 CALM 0 0 0 0 - - 0.2
10/05:20am 23.3 27.5 21.8 91 1.0 W 2 4 1 2 - - 0.2
10/05:10am 23.4 27.3 21.8 91 1.1 W 4 6 2 3 - - 0.2
10/05:00am 23.5 27.8 21.9 91 1.1 SW 2 6 1 3 - - 0.2
10/04:50am 23.5 28.1 21.7 90 1.2 CALM 0 0 0 0 - - 0.2
10/04:40am 23.5 28.2 21.9 91 1.1 CALM 0 0 0 0 - - 0.2
10/04:30am 23.6 28.3 22.0 91 1.1 CALM 0 0 0 0 - - 0.2
10/04:20am 23.7 28.5 22.1 91 1.1 CALM 0 0 0 0 - - 0.2
10/04:10am 23.8 28.5 21.9 89 1.3 CALM 0 0 0 0 - - 0.2
10/04:00am 23.9 28.6 22.0 89 1.3 CALM 0 4 0 2 - - 0.2
10/03:50am 24.0 28.5 22.3 90 1.1 S 2 6 1 3 - - 0.2
10/03:40am 24.2 28.7 22.3 89 1.3 WNW 2 4 1 2 - - 0.2
10/03:30am 24.2 28.4 21.8 86 1.6 ENE 2 6 1 3 - - 0.2
10/03:20am 24.0 28.0 21.4 85 1.7 ESE 2 4 1 2 - - 0.2
10/03:10am 24.0 28.1 21.6 86 1.6 ESE 2 4 1 2 - - 0.2
10/03:00am 23.9 28.4 21.6 87 1.5 CALM 0 0 0 0 - - 0.2
10/02:50am 23.9 28.2 21.2 85 1.8 CALM 0 2 0 1 - - 0.2
10/02:40am 24.0 27.9 21.2 84 1.8 SE 2 4 1 2 - - 0.2
10/02:30am 24.0 28.6 21.7 87 1.5 CALM 0 0 0 0 - - 0.2
10/02:20am 24.1 28.6 21.5 85 1.7 CALM 0 0 0 0 - - 0.2
10/02:10am 24.2 28.6 21.3 84 1.9 CALM 0 4 0 2 - - 0.2
10/02:00am 24.0 28.4 21.3 85 1.8 CALM 0 0 0 0 - - 0.2
10/01:50am 24.1 28.0 21.2 84 1.9 S 2 6 1 3 - - 0.2
10/01:40am 24.3 28.5 21.8 86 1.7 SW 2 4 1 2 - - 0.2
10/01:30am 24.4 28.9 21.5 84 1.9 CALM 0 4 0 2 - - 0.2
10/01:20am 24.5 29.0 21.6 84 1.9 CALM 0 0 0 0 - - 0.2
10/01:10am 24.8 28.2 21.6 82 2.1 WSW 6 11 3 6 - - 0.2
10/01:00am 25.4 29.6 21.8 80 2.4 WNW 2 6 1 3 - - 0.2
10/12:50am 25.5 28.1 18.3 64 4.6 NE 2 6 1 3 - - 0.2
10/12:40am 25.4 28.1 20.3 73 3.3 E 6 7 3 4 - - 0.2
10/12:30am 25.6 29.3 20.8 75 3.2 SSE 2 6 1 3 - - 0.2
10/12:20am 26.0 29.0 21.2 75 3.2 SW 7 13 4 7 - - 0.2
10/12:10am 26.3 30.6 22.6 80 2.5 NNE 4 7 2 4 - - 0.2
10/12:00am 26.6 31.1 22.3 77 2.9 SSE 2 7 1 4 - - 0.2
 
Date/Time
WST
Temp
°C
App
Temp
°C
Dew
Point
°C
Rel
Hum
%
Delta-T
°C
Wind Press
QNH
hPa
Press
MSL
hPa
Rain since
9am
mm
Dir  Spd
km/h
Gust
km/h
Spd
kts
Gust
kts
09/11:50pm 26.7 29.9 20.4 68 4.1 S 4 9 2 5 - - 0.2
09/11:40pm 26.9 29.7 20.4 67 4.3 SE 6 11 3 6 - - 0.2
09/11:30pm 27.1 29.3 20.5 67 4.3 NE 9 15 5 8 - - 0.2
09/11:20pm 27.2 30.0 20.8 68 4.2 N 7 13 4 7 - - 0.2
09/11:10pm 27.7 29.5 19.5 61 5.3 W 9 13 5 7 - - 0.2
09/11:00pm 28.8 30.3 19.7 58 5.9 NE 11 20 6 11 - - 0.0
09/10:50pm 29.5 30.9 17.9 49 7.4 E 7 15 4 8 - - 0.0
09/10:40pm 30.3 29.3 16.6 43 8.6 E 17 26 9 14 - - 0.0
09/10:30pm 30.7 27.0 16.0 41 9.1 ENE 30 35 16 19 - - 0.0
09/10:20pm 30.6 27.4 16.3 42 8.9 ENE 28 33 15 18 - - 0.0
09/10:10pm 30.6 28.2 16.4 42 8.9 NE 24 41 13 22 - - 0.0
09/10:00pm 30.6 29.3 16.7 43 8.7 NNE 19 24 10 13 - - 0.0
09/09:50pm 30.8 29.2 16.5 42 9.0 N 20 32 11 17 - - 0.0
09/09:40pm 30.9 29.3 16.4 41 9.1 NE 20 28 11 15 - - 0.0
09/09:30pm 30.7 30.6 16.1 41 9.1 S 11 15 6 8 - - 0.0
09/09:20pm 30.5 31.3 16.4 42 8.8 S 7 11 4 6 - - 0.0
09/09:10pm 30.5 30.9 16.4 42 8.8 SSE 9 13 5 7 - - 0.0
09/09:00pm 30.3 30.4 16.6 43 8.6 SSE 11 15 6 8 - - 0.0
09/08:50pm 30.2 30.2 16.3 43 8.7 SE 11 13 6 7 - - 0.0
09/08:40pm 29.9 29.6 16.4 44 8.4 SE 13 17 7 9 - - 0.0
09/08:30pm 29.2 29.7 16.6 46 7.9 E 9 17 5 9 - - 0.0
09/08:20pm 29.1 31.5 17.0 48 7.6 CALM 0 0 0 0 - - 0.0
09/08:10pm 29.4 31.3 16.7 46 8.0 SW 2 4 1 2 - - 0.0
09/08:00pm 29.8 31.3 16.6 45 8.3 S 4 7 2 4 - - 0.0
09/07:50pm 30.2 31.0 16.4 43 8.6 SSW 7 9 4 5 - - 0.0
09/07:40pm 30.6 31.0 16.3 42 8.9 S 9 13 5 7 - - 0.0
09/07:30pm 30.8 30.7 16.0 40 9.2 S 11 17 6 9 - - 0.0
09/07:20pm 31.1 30.6 15.8 39 9.5 S 13 15 7 8 - - 0.0
09/07:10pm 31.4 31.2 15.6 38 9.8 S 11 15 6 8 - - 0.0
09/07:00pm 31.8 30.4 15.5 37 10.1 SSE 17 24 9 13 - - 0.0
09/06:50pm 32.1 30.6 15.2 36 10.4 SSE 17 20 9 11 - - 0.0
09/06:40pm 32.4 30.8 15.1 35 10.7 S 17 22 9 12 - - 0.0
09/06:30pm 32.4 32.2 15.6 36 10.5 S 11 15 6 8 - - 0.0
09/06:20pm 32.6 33.1 15.6 36 10.6 S 7 11 4 6 - - 0.0
09/06:10pm 33.0 33.8 16.3 36 10.5 SW 7 9 4 5 - - 0.0
09/06:00pm 33.4 34.0 15.7 34 11.1 S 7 11 4 6 - - 0.0
09/05:50pm 33.9 33.6 15.5 33 11.5 S 11 13 6 7 - - 0.0
09/05:40pm 34.4 33.6 15.0 31 12.1 S 13 17 7 9 - - 0.0
09/05:30pm 34.9 33.9 14.5 29 12.6 S 13 17 7 9 - - 0.0
09/05:20pm 35.2 33.4 14.4 28 12.8 S 17 22 9 12 - - 0.0
09/05:10pm 35.6 34.3 14.7 28 13.0 S 15 22 8 12 - - 0.0
09/05:00pm 36.3 35.2 14.3 27 13.6 SSE 13 24 7 13 - - 0.0
09/04:50pm 37.5 36.9 12.2 22 15.3 ESE 7 15 4 8 - - 0.0
09/04:40pm 38.4 36.9 12.0 20 15.9 E 11 20 6 11 - - 0.0
09/04:30pm 38.9 35.7 11.8 19 16.3 ENE 20 24 11 13 - - 0.0
09/04:20pm 38.9 34.4 11.5 19 16.5 ENE 26 30 14 16 - - 0.0
09/04:10pm 39.2 35.6 12.0 19 16.5 NE 22 32 12 17 - - 0.0
09/04:00pm 39.4 36.3 11.6 19 16.8 E 19 30 10 16 - - 0.0
09/03:50pm 39.5 36.7 11.5 18 16.9 E 17 30 9 16 - - 0.0
09/03:40pm 39.8 37.3 11.1 18 17.2 E 15 32 8 17 - - 0.0
09/03:30pm 39.9 37.0 11.0 17 17.3 E 17 26 9 14 - - 0.0
09/03:20pm 39.6 37.4 12.1 19 16.7 NE 15 20 8 11 - - 0.0
09/03:10pm 39.2 36.5 11.8 19 16.5 E 17 24 9 13 - - 0.0
09/03:00pm 39.8 36.3 10.1 17 17.5 ENE 19 26 10 14 - - 0.0
09/02:50pm 39.4 36.9 10.9 18 17.0 E 15 22 8 12 - - 0.0
09/02:40pm 39.1 38.3 11.6 19 16.6 SE 7 13 4 7 - - 0.0
09/02:30pm 37.8 34.3 10.9 19 16.0 E 20 35 11 19 - - 0.0
09/02:20pm 38.6 35.9 11.8 20 16.2 NE 17 26 9 14 - - 0.0
09/02:10pm 39.7 37.6 11.2 18 17.1 E 13 22 7 12 - - 0.0
09/02:00pm 38.9 36.8 11.1 19 16.6 ESE 13 19 7 10 - - 0.0
09/01:50pm 40.0 38.5 12.0 19 17.0 S 11 20 6 11 - - 0.0
09/01:40pm 39.8 36.9 12.4 19 16.7 NNE 19 28 10 15 - - 0.0
09/01:30pm 39.9 36.7 11.1 18 17.3 ENE 19 32 10 17 - - 0.0
09/01:20pm 40.0 37.0 10.8 17 17.4 ESE 17 33 9 18 - - 0.0
09/01:10pm 39.4 36.1 11.7 19 16.7 NE 20 24 11 13 - - 0.0
09/01:00pm 39.6 37.4 13.3 21 16.2 E 17 20 9 11 - - 0.0
09/12:50pm 39.8 37.9 11.7 18 17.0 ESE 13 17 7 9 - - 0.0
09/12:40pm 39.3 37.5 12.1 19 16.5 ENE 13 19 7 10 - - 0.0
09/12:30pm 39.1 36.2 11.0 18 16.8 ENE 17 30 9 16 - - 0.0
09/12:20pm 38.8 36.3 11.2 19 16.5 N 15 22 8 12 - - 0.0
09/12:10pm 38.2 36.9 13.7 23 15.1 N 13 30 7 16 - - 0.0
09/12:00pm 37.4 36.1 12.5 22 15.1 SE 11 15 6 8 - - 0.0
09/11:50am 37.8 37.5 14.5 25 14.5 ESE 9 13 5 7 - - 0.0
09/11:40am 38.5 37.2 13.7 23 15.3 SSE 13 19 7 10 - - 0.0
09/11:30am 38.8 37.3 14.1 23 15.4 ESE 15 20 8 11 - - 0.0
09/11:20am 38.2 36.6 14.0 23 15.0 SW 15 19 8 10 - - 0.0
09/11:10am 37.5 34.4 13.5 24 14.8 WSW 22 30 12 16 - - 0.0
09/11:00am 38.0 36.7 14.8 25 14.6 SSE 15 26 8 14 - - 0.0
09/10:50am 37.6 36.2 14.6 25 14.4 SW 15 22 8 12 - - 0.0
09/10:40am 37.6 36.7 14.8 25 14.3 S 13 19 7 10 - - 0.0
09/10:30am 37.2 36.8 15.3 27 13.8 WSW 11 20 6 11 - - 0.0
09/10:20am 37.0 35.9 14.4 26 14.0 WSW 13 17 7 9 - - 0.0
09/10:10am 37.0 36.3 15.5 28 13.6 SSW 13 15 7 8 - - 0.0
09/10:00am 36.7 35.6 15.2 27 13.5 S 15 20 8 11 - - 0.0
09/09:50am 36.5 35.8 15.3 28 13.3 S 13 17 7 9 - - 0.0
09/09:40am 36.3 35.6 15.5 29 13.1 S 13 20 7 11 - - 0.0
09/09:30am 36.0 34.9 15.4 29 12.9 S 15 17 8 9 - - 0.0
09/09:20am 35.5 33.9 15.0 29 12.8 S 17 26 9 14 - - 0.0
09/09:10am 35.1 33.7 15.5 31 12.3 S 17 20 9 11 - - 0.0
09/09:00am 34.7 33.5 16.1 33 11.8 S 17 22 9 12 - - 0.0
09/08:50am 34.6 33.3 15.9 32 11.8 S 17 22 9 12 - - 0.0
09/08:40am 34.3 33.0 15.7 32 11.7 SSW 17 28 9 15 - - 0.0
09/08:30am 34.0 33.7 17.4 37 10.7 S 15 19 8 10 - - 0.0
09/08:20am 33.8 33.4 17.1 37 10.7 S 15 17 8 9 - - 0.0
09/08:10am 33.1 32.1 16.5 37 10.5 SSW 17 24 9 13 - - 0.0
09/08:00am 32.7 31.1 16.0 36 10.5 SSW 19 22 10 12 - - 0.0
09/07:50am 32.1 31.4 16.3 38 9.9 SSW 15 19 8 10 - - 0.0
09/07:40am 31.6 30.4 16.1 39 9.7 SW 17 20 9 11 - - 0.0
09/07:30am 31.1 30.4 16.5 41 9.2 SSW 15 20 8 11 - - 0.0
09/07:20am 30.6 29.6 16.6 43 8.8 SSW 17 20 9 11 - - 0.0
09/07:10am 30.0 28.7 16.9 45 8.2 SW 19 20 10 11 - - 0.0
09/07:00am 29.7 30.2 17.4 47 7.8 SSW 11 19 6 10 - - 0.0
09/06:50am 28.9 30.4 17.5 50 7.2 SSW 6 9 3 5 - - 0.0
09/06:40am 28.3 29.8 18.1 54 6.5 SSW 7 9 4 5 - - 0.0
09/06:30am 27.5 28.7 17.3 53 6.4 SSW 7 9 4 5 - - 0.0
09/06:20am 26.9 28.2 17.6 56 5.9 SSW 7 11 4 6 - - 0.0
09/06:10am 27.1 27.7 17.6 56 6.0 SSW 11 15 6 8 - - 0.0
09/06:00am 26.7 28.4 17.1 55 6.0 SW 4 7 2 4 - - 0.0
09/05:50am 25.7 27.0 17.2 59 5.3 SSE 6 13 3 7 - - 0.0
09/05:40am 24.6 25.4 17.2 63 4.6 SSW 9 15 5 8 - - 0.0
09/05:30am 23.9 26.8 18.3 71 3.5 CALM 0 4 0 2 - - 0.0
09/05:20am 23.5 25.5 17.9 71 3.5 NE 4 7 2 4 - - 0.0
09/05:10am 23.4 25.5 18.2 72 3.3 W 4 7 2 4 - - 0.0
09/05:00am 23.4 26.3 18.2 72 3.3 CALM 0 0 0 0 - - 0.0
09/04:50am 23.6 25.5 18.5 73 3.2 W 6 9 3 5 - - 0.0
09/04:40am 23.8 25.4 18.2 71 3.5 SW 7 15 4 8 - - 0.0
09/04:30am 23.0 23.7 17.9 73 3.2 NE 11 17 6 9 - - 0.0
09/04:20am 22.9 25.2 19.4 80 2.2 SSW 6 13 3 7 - - 0.0
09/04:10am 22.9 26.3 19.4 80 2.2 CALM 0 2 0 1 - - 0.0
09/04:00am 22.6 25.7 19.4 82 2.0 NW 2 6 1 3 - - 0.0
09/03:50am 22.5 25.8 19.2 81 2.1 CALM 0 0 0 0 - - 0.0
09/03:40am 22.5 25.8 19.2 81 2.1 CALM 0 0 0 0 - - 0.0
09/03:30am 22.5 25.8 19.1 81 2.2 CALM 0 2 0 1 - - 0.0
09/03:20am 22.6 25.5 19.0 80 2.3 W 2 7 1 4 - - 0.0
09/03:10am 22.7 26.0 19.0 79 2.3 CALM 0 4 0 2 - - 0.0
09/03:00am 22.8 25.8 19.2 80 2.3 SW 2 6 1 3 - - 0.0
09/02:50am 23.1 25.6 19.0 78 2.6 WSW 4 7 2 4 - - 0.0
09/02:40am 23.6 26.2 19.3 77 2.7 WSW 4 7 2 4 - - 0.0
09/02:30am 23.6 25.4 18.4 72 3.3 NE 6 7 3 4 - - 0.0
09/02:20am 23.3 26.2 18.3 73 3.1 CALM 0 0 0 0 - - 0.0
09/02:10am 23.5 26.0 19.0 76 2.9 WSW 4 7 2 4 - - 0.0
09/02:00am 24.0 27.3 19.1 74 3.1 CALM 0 0 0 0 - - 0.0
09/01:50am 24.3 26.5 18.3 69 3.8 E 4 9 2 5 - - 0.0
09/01:40am 24.4 25.8 17.7 66 4.2 ENE 7 9 4 5 - - 0.0
09/01:30am 24.3 26.6 17.8 67 4.1 E 2 9 1 5 - - 0.0
09/01:20am 24.4 27.3 18.1 68 4.0 CALM 0 0 0 0 - - 0.0
09/01:10am 24.5 27.3 17.9 66 4.1 CALM 0 0 0 0 - - 0.0
09/01:00am 24.9 27.8 18.2 66 4.2 CALM 0 0 0 0 - - 0.0
09/12:50am 25.2 27.3 18.2 65 4.4 SE 4 6 2 3 - - 0.0
09/12:40am 25.5 26.7 18.2 64 4.6 E 9 11 5 6 - - 0.0
09/12:30am 25.7 27.3 17.9 62 4.9 E 6 11 3 6 - - 0.0
09/12:20am 26.0 28.5 18.1 61 5.0 ESE 2 7 1 4 - - 0.0
09/12:10am 26.3 27.8 18.1 60 5.2 NE 7 9 4 5 - - 0.0
09/12:00am 26.5 28.4 17.7 58 5.5 E 4 9 2 5 - - 0.0
 
Date/Time
WST
Temp
°C
App
Temp
°C
Dew
Point
°C
Rel
Hum
%
Delta-T
°C
Wind Press
QNH
hPa
Press
MSL
hPa
Rain since
9am
mm
Dir  Spd
km/h
Gust
km/h
Spd
kts
Gust
kts
08/11:50pm 27.0 28.9 17.7 56 5.9 E 4 7 2 4 - - 0.0
08/11:40pm 27.2 28.6 16.5 52 6.6 E 4 6 2 3 - - 0.0
08/11:30pm 27.3 28.4 16.6 52 6.6 NNW 6 9 3 5 - - 0.0
08/11:20pm 27.7 28.8 16.7 51 6.8 SSW 6 13 3 7 - - 0.0
08/11:10pm 28.3 29.0 17.1 50 7.0 WNW 9 15 5 8 - - 0.0
08/11:00pm 28.9 29.7 16.3 46 7.8 ENE 7 11 4 6 - - 0.0
08/10:50pm 29.2 30.8 16.0 44 8.2 NNE 2 7 1 4 - - 0.0
08/10:40pm 29.7 30.3 15.7 42 8.6 NW 7 13 4 7 - - 0.0
08/10:30pm 30.1 29.0 15.3 40 9.1 N 15 19 8 10 - - 0.0
08/10:20pm 30.3 28.7 15.1 39 9.3 NNE 17 20 9 11 - - 0.0
08/10:10pm 30.5 28.3 14.8 38 9.6 N 20 26 11 14 - - 0.0
08/10:00pm 29.9 28.0 14.3 38 9.4 NNE 17 22 9 12 - - 0.0
08/09:50pm 27.5 27.7 15.7 48 7.2 NE 9 13 5 7 - - 0.0
08/09:40pm 26.8 29.8 18.5 60 5.3 CALM 0 0 0 0 - - 0.0
08/09:30pm 27.1 30.8 19.9 64 4.7 CALM 0 0 0 0 - - 0.0
08/09:20pm 27.8 30.1 19.9 62 5.2 NNW 7 11 4 6 - - 0.0
08/09:10pm 28.3 29.6 17.2 51 7.0 ENE 6 9 3 5 - - 0.0
08/09:00pm 28.1 29.4 17.2 51 6.8 E 6 7 3 4 - - 0.0
08/08:50pm 27.8 29.8 17.9 54 6.3 E 4 6 2 3 - - 0.0
08/08:40pm 27.6 30.8 18.9 59 5.6 CALM 0 0 0 0 - - 0.0
08/08:30pm 27.8 31.3 19.5 60 5.4 CALM 0 0 0 0 - - 0.0
08/08:20pm 28.0 31.2 18.9 57 5.9 CALM 0 0 0 0 - - 0.0
08/08:10pm 28.2 31.8 19.7 60 5.5 CALM 0 0 0 0 - - 0.0
08/08:00pm 28.6 31.9 19.1 56 6.1 CALM 0 4 0 2 - - 0.0
08/07:50pm 29.1 32.4 19.2 55 6.4 CALM 0 0 0 0 - - 0.0
08/07:40pm 29.9 32.6 19.4 53 6.8 NW 4 6 2 3 - - 0.0
08/07:30pm 30.4 32.6 18.3 48 7.8 NE 4 9 2 5 - - 0.0
08/07:20pm 30.7 33.2 17.2 44 8.6 CALM 0 0 0 0 - - 0.0
08/07:10pm 31.1 33.2 16.3 41 9.3 CALM 0 4 0 2 - - 0.0
08/07:00pm 31.6 33.2 15.9 38 9.8 ESE 2 4 1 2 - - 0.0
08/06:50pm 32.2 33.4 15.8 37 10.2 SE 4 6 2 3 - - 0.0
08/06:40pm 33.3 34.3 16.3 36 10.7 NE 6 7 3 4 - - 0.0
08/06:30pm 33.7 33.3 14.2 30 11.9 NNE 9 13 5 7 - - 0.0
08/06:20pm 34.1 33.3 13.9 29 12.3 NE 11 15 6 8 - - 0.0
08/06:10pm 34.4 34.0 14.2 29 12.4 NE 9 11 5 6 - - 0.0
08/06:00pm 35.0 33.6 13.5 27 13.1 NE 13 15 7 8 - - 0.0
08/05:50pm 35.4 33.9 13.2 26 13.5 ENE 13 15 7 8 - - 0.0
08/05:40pm 35.9 34.7 12.9 25 13.9 E 11 17 6 9 - - 0.0
08/05:30pm 36.4 35.2 12.9 24 14.3 E 11 17 6 9 - - 0.0
08/05:20pm 36.7 35.0 12.4 23 14.7 E 13 17 7 9 - - 0.0
08/05:10pm 36.9 34.7 12.2 22 14.9 E 15 20 8 11 - - 0.0
08/05:00pm 37.1 34.5 11.9 22 15.1 ENE 17 20 9 11 - - 0.0
08/04:50pm 37.3 34.2 11.6 21 15.4 ENE 19 26 10 14 - - 0.0
08/04:40pm 37.5 35.3 12.1 21 15.3 ENE 15 20 8 11 - - 0.0
08/04:30pm 37.8 36.5 12.4 22 15.4 E 11 15 6 8 - - 0.0
08/04:20pm 37.6 35.3 11.8 21 15.5 NE 15 20 8 11 - - 0.0
08/04:10pm 37.7 35.0 12.9 22 15.1 NE 19 22 10 12 - - 0.0
08/04:00pm 37.8 34.2 11.7 21 15.7 NE 22 26 12 14 - - 0.0
08/03:50pm 38.1 34.9 12.0 21 15.7 ENE 20 28 11 15 - - 0.0
08/03:40pm 38.4 37.3 13.0 22 15.6 E 11 17 6 9 - - 0.0
08/03:30pm 38.1 36.1 12.7 22 15.5 NNE 15 20 8 11 - - 0.0
08/03:20pm 38.3 36.8 12.0 20 15.9 NE 11 19 6 10 - - 0.0
08/03:10pm 38.2 35.9 12.9 22 15.5 ENE 17 24 9 13 - - 0.0
08/03:00pm 38.2 35.6 12.0 21 15.8 ENE 17 30 9 16 - - 0.0
08/02:50pm 37.8 34.8 12.4 22 15.4 NE 20 32 11 17 - - 0.0
08/02:40pm 37.9 35.1 12.7 22 15.3 ENE 19 30 10 16 - - 0.0
08/02:30pm 38.0 34.3 11.6 20 15.8 ENE 22 43 12 23 - - 0.0
08/02:20pm 38.2 36.2 12.6 21 15.6 ENE 15 20 8 11 - - 0.0
08/02:10pm 38.1 34.9 11.2 20 16.0 NNE 19 26 10 14 - - 0.0
08/02:00pm 38.1 34.0 11.4 20 16.0 NE 24 37 13 20 - - 0.0
08/01:50pm 38.1 35.1 12.0 21 15.7 NNE 19 24 10 13 - - 0.0
08/01:40pm 38.5 36.1 11.4 19 16.2 NE 15 35 8 19 - - 0.0
08/01:30pm 38.8 37.9 11.2 19 16.5 E 7 11 4 6 - - 0.0
08/01:20pm 38.1 36.3 12.1 21 15.7 NE 13 26 7 14 - - 0.0
08/01:10pm 37.8 34.7 12.3 21 15.4 NNE 20 32 11 17 - - 0.0
08/01:00pm 37.8 35.8 11.5 20 15.7 NNW 13 19 7 10 - - 0.0
08/12:50pm 37.4 35.6 12.2 22 15.2 N 13 20 7 11 - - 0.0
08/12:40pm 37.4 34.7 11.7 21 15.4 NNE 17 24 9 13 - - 0.0
08/12:30pm 37.5 34.2 10.8 20 15.8 NNE 19 28 10 15 - - 0.0
08/12:20pm 37.4 32.4 12.2 22 15.2 NE 30 33 16 18 - - 0.0
08/12:10pm 37.2 34.6 12.0 22 15.1 N 17 26 9 14 - - 0.0
08/12:00pm 37.5 35.1 12.6 22 15.1 W 17 22 9 12 - - 0.0
08/11:50am 37.1 34.4 12.9 23 14.7 NW 19 24 10 13 - - 0.0
08/11:40am 37.2 34.2 12.6 23 14.9 NNW 20 26 11 14 - - 0.0
08/11:30am 37.3 36.1 12.8 23 14.9 NNE 11 17 6 9 - - 0.0
08/11:20am 37.5 36.0 13.1 23 14.9 ESE 13 19 7 10 - - 0.0
08/11:10am 36.8 35.8 13.5 24 14.3 N 11 20 6 11 - - 0.0
08/11:00am 36.5 34.7 14.5 27 13.7 W 17 20 9 11 - - 0.0
08/10:50am 36.3 34.9 14.5 27 13.5 WNW 15 22 8 12 - - 0.0
08/10:40am 35.9 34.0 14.2 27 13.4 NW 17 22 9 12 - - 0.0
08/10:30am 36.0 34.1 14.1 27 13.5 N 17 24 9 13 - - 0.0
08/10:20am 35.8 33.5 14.6 28 13.2 N 20 30 11 16 - - 0.0
08/10:10am 36.3 35.7 14.7 27 13.5 N 11 20 6 11 - - 0.0
08/10:00am 36.1 36.3 14.7 28 13.3 S 7 11 4 6 - - 0.0
08/09:50am 35.3 35.1 14.7 29 12.8 W 9 13 5 7 - - 0.0
08/09:40am 35.0 33.9 14.3 29 12.8 N 13 19 7 10 - - 0.0
08/09:30am 35.1 35.4 15.9 31 12.1 NW 9 17 5 9 - - 0.0
08/09:20am 34.5 33.1 13.4 28 12.8 WNW 13 19 7 10 - - 0.0
08/09:10am 34.3 31.7 13.7 29 12.6 WNW 20 30 11 16 - - 0.0
08/09:00am 34.2 33.2 15.5 32 11.7 WNW 15 20 8 11 - - 0.0
08/08:50am 33.7 32.2 15.4 33 11.4 WSW 17 26 9 14 - - 0.0
08/08:40am 33.4 32.8 16.7 36 10.6 WSW 15 22 8 12 - - 0.0
08/08:30am 32.8 32.0 17.0 38 10.0 SW 17 20 9 11 - - 0.0
08/08:20am 32.7 32.9 17.6 40 9.7 WSW 13 20 7 11 - - 0.0
08/08:10am 32.5 33.3 17.3 40 9.7 WSW 9 19 5 10 - - 0.0
08/08:00am 32.0 32.7 17.9 43 9.1 SW 11 15 6 8 - - 0.0
08/07:50am 31.5 32.7 18.3 45 8.5 S 9 13 5 7 - - 0.0
08/07:40am 31.0 32.2 19.0 48 7.8 SSW 11 15 6 8 - - 0.0
08/07:30am 30.8 32.0 19.1 49 7.6 S 11 17 6 9 - - 0.0
08/07:20am 30.2 31.5 19.2 51 7.2 SSW 11 15 6 8 - - 0.0
08/07:10am 29.8 31.2 19.5 54 6.7 SSW 11 15 6 8 - - 0.0
08/07:00am 29.3 30.6 19.3 55 6.5 SSW 11 15 6 8 - - 0.0
08/06:50am 28.8 30.3 19.7 58 5.9 SSW 11 15 6 8 - - 0.0
08/06:40am 28.2 30.4 20.3 62 5.2 SW 9 13 5 7 - - 0.0
08/06:30am 27.6 29.9 20.6 65 4.6 SW 9 11 5 6 - - 0.0
08/06:20am 26.9 29.5 20.4 67 4.3 WSW 7 11 4 6 - - 0.0
08/06:10am 25.9 30.1 21.0 74 3.2 CALM 0 6 0 3 - - 0.0
08/06:00am 24.7 28.2 20.3 76 2.9 N 2 6 1 3 - - 0.0
08/05:50am 23.9 28.0 20.7 82 2.1 CALM 0 0 0 0 - - 0.0
08/05:40am 23.1 27.1 20.6 86 1.6 CALM 0 0 0 0 - - 0.0
08/05:30am 22.7 26.7 20.5 87 1.4 CALM 0 0 0 0 - - 0.0
08/05:20am 22.0 25.9 20.3 90 1.1 CALM 0 0 0 0 - - 0.0
08/05:10am 21.8 25.3 20.3 91 1.0 NNE 2 7 1 4 - - 0.0
08/05:00am 21.7 25.6 20.4 92 0.8 CALM 0 2 0 1 - - 0.0
08/04:50am 21.8 25.7 20.3 91 1.0 CALM 0 4 0 2 - - 0.0
08/04:40am 21.9 25.4 20.4 91 1.0 WSW 2 6 1 3 - - 0.0
08/04:30am 22.2 26.1 20.3 89 1.2 CALM 0 4 0 2 - - 0.0
08/04:20am 22.3 26.3 20.5 89 1.2 CALM 0 0 0 0 - - 0.0
08/04:10am 22.5 26.6 20.7 89 1.2 CALM 0 0 0 0 - - 0.0
08/04:00am 22.5 26.5 20.6 89 1.2 CALM 0 0 0 0 - - 0.0
08/03:50am 22.5 26.6 20.8 90 1.1 CALM 0 0 0 0 - - 0.0
08/03:40am 22.7 26.8 20.8 89 1.2 CALM 0 0 0 0 - - 0.0
08/03:30am 22.8 26.9 20.8 88 1.3 CALM 0 0 0 0 - - 0.0
08/03:20am 23.0 27.2 20.9 88 1.4 CALM 0 0 0 0 - - 0.0
08/03:10am 23.2 27.4 20.9 87 1.5 CALM 0 0 0 0 - - 0.0
08/03:00am 23.4 27.6 21.0 86 1.6 CALM 0 2 0 1 - - 0.0
08/02:50am 23.7 27.1 21.0 85 1.8 ESE 4 7 2 4 - - 0.0
08/02:40am 23.8 26.8 20.9 84 1.9 E 6 9 3 5 - - 0.0
08/02:30am 23.9 27.3 21.0 84 1.9 ENE 4 6 2 3 - - 0.0
08/02:20am 23.8 28.1 21.1 85 1.8 CALM 0 0 0 0 - - 0.0
08/02:10am 23.9 27.8 21.2 85 1.8 SSE 2 4 1 2 - - 0.0
08/02:00am 24.1 28.3 21.0 83 2.0 CALM 0 0 0 0 - - 0.0
08/01:50am 24.3 28.5 20.9 81 2.2 CALM 0 0 0 0 - - 0.0
08/01:40am 24.4 28.6 21.0 81 2.2 CALM 0 0 0 0 - - 0.0
08/01:30am 24.7 28.9 20.9 79 2.5 CALM 0 0 0 0 - - 0.0
08/01:20am 24.7 28.9 21.0 80 2.4 CALM 0 0 0 0 - - 0.0
08/01:10am 24.9 29.1 20.9 78 2.6 CALM 0 0 0 0 - - 0.0
08/01:00am 25.2 29.4 21.0 77 2.8 CALM 0 4 0 2 - - 0.0
08/12:50am 25.4 28.6 20.6 75 3.1 SW 4 7 2 4 - - 0.0
08/12:40am 25.4 28.7 20.8 75 3.0 S 4 7 2 4 - - 0.0
08/12:30am 25.7 29.9 21.0 75 3.1 CALM 0 4 0 2 - - 0.0
08/12:20am 26.1 29.8 20.8 72 3.5 WSW 2 7 1 4 - - 0.0
08/12:10am 26.3 29.9 20.6 71 3.7 W 2 4 1 2 - - 0.0
08/12:00am 26.6 29.3 20.6 69 3.9 NW 7 11 4 6 - - 0.0
 
Date/Time
WST
Temp
°C
App
Temp
°C
Dew
Point
°C
Rel
Hum
%
Delta-T
°C
Wind Press
QNH
hPa
Press
MSL
hPa
Rain since
9am
mm
Dir  Spd
km/h
Gust
km/h
Spd
kts
Gust
kts
07/11:50pm 26.7 29.3 20.4 68 4.1 NNW 7 9 4 5 - - 0.0
07/11:40pm 26.8 29.0 20.5 68 4.1 NNW 9 11 5 6 - - 0.0
07/11:30pm 26.9 29.4 20.3 67 4.3 NW 7 11 4 6 - - 0.0
07/11:20pm 27.1 29.6 20.2 66 4.5 WNW 7 9 4 5 - - 0.0
07/11:10pm 27.3 29.4 20.1 64 4.7 WNW 9 13 5 7 - - 0.0
07/11:00pm 27.5 29.1 19.9 63 5.0 WNW 11 11 6 6 - - 0.0
07/10:50pm 27.6 29.1 19.7 62 5.1 NW 11 15 6 8 - - 0.0
07/10:40pm 27.8 29.2 19.6 61 5.3 WNW 11 19 6 10 - - 0.0
07/10:30pm 27.9 30.0 19.4 60 5.5 NW 7 11 4 6 - - 0.0
07/10:20pm 28.1 29.1 19.5 59 5.6 WNW 13 17 7 9 - - 0.0
07/10:10pm 28.3 28.8 19.3 58 5.8 NW 15 19 8 10 - - 0.0
07/10:00pm 28.4 29.0 19.5 58 5.8 NNW 15 19 8 10 - - 0.0
07/09:50pm 28.5 29.9 19.5 58 5.9 NW 11 20 6 11 - - 0.0
07/09:40pm 28.6 30.4 19.6 58 5.9 N 9 13 5 7 - - 0.0
07/09:30pm 28.7 30.0 19.4 57 6.0 N 11 15 6 8 - - 0.0
07/09:20pm 28.9 29.8 19.3 56 6.2 N 13 19 7 10 - - 0.0
07/09:10pm 29.1 29.6 19.2 55 6.4 NNW 15 19 8 10 - - 0.0
07/09:00pm 29.3 28.8 19.1 54 6.6 NNW 20 22 11 12 - - 0.0
07/08:50pm 29.5 28.5 18.9 53 6.9 NNW 22 28 12 15 - - 0.0
07/08:40pm 29.6 28.6 18.8 52 7.0 NNW 22 30 12 16 - - 0.0
07/08:30pm 29.7 28.9 18.5 51 7.2 NNW 20 24 11 13 - - 0.0
07/08:20pm 30.0 28.3 18.1 49 7.6 NNW 24 30 13 16 - - 0.0
07/08:10pm 28.9 27.6 15.8 45 8.1 NNW 17 30 9 16 - - 0.0
07/08:00pm 27.2 30.4 18.9 60 5.3 CALM 0 4 0 2 - - 0.0
07/07:50pm 27.5 29.6 17.2 53 6.5 SSE 2 7 1 4 - - 0.0
07/07:40pm 27.8 30.9 18.6 57 5.9 CALM 0 0 0 0 - - 0.0
07/07:30pm 28.4 30.9 19.0 56 6.1 NNW 4 11 2 6 - - 0.0
07/07:20pm 28.9 31.7 18.0 51 6.9 CALM 0 2 0 1 - - 0.0
07/07:10pm 29.4 30.9 17.5 48 7.5 NE 6 9 3 5 - - 0.0
07/07:00pm 29.6 31.6 16.1 44 8.4 CALM 0 0 0 0 - - 0.0
07/06:50pm 30.5 33.1 18.4 48 7.8 ENE 2 6 1 3 - - 0.0
07/06:40pm 31.2 31.7 15.5 38 9.7 NNE 7 11 4 6 - - 0.0
07/06:30pm 31.7 31.1 13.6 33 10.9 NE 9 11 5 6 - - 0.0
07/06:20pm 32.0 31.3 13.3 32 11.2 NE 9 13 5 7 - - 0.0
07/06:10pm 32.6 32.7 14.0 32 11.3 E 6 9 3 5 - - 0.0
07/06:00pm 33.3 33.2 13.9 31 11.8 NNE 7 7 4 4 - - 0.0
07/05:50pm 33.8 32.9 12.7 27 12.6 NE 9 11 5 6 - - 0.0
07/05:40pm 34.4 32.6 12.1 26 13.3 NE 13 17 7 9 - - 0.0
07/05:30pm 34.9 32.7 12.0 25 13.6 ENE 15 19 8 10 - - 0.0
07/05:20pm 35.5 33.0 12.4 24 13.9 NE 17 19 9 10 - - 0.0
07/05:10pm 35.7 32.7 11.9 23 14.2 NE 19 22 10 12 - - 0.0
07/05:00pm 36.0 33.1 12.4 24 14.2 NE 19 26 10 14 - - 0.0
07/04:50pm 36.2 32.4 12.3 23 14.4 NE 24 28 13 15 - - 0.0
07/04:40pm 36.2 32.6 12.0 23 14.5 NE 22 28 12 15 - - 0.0
07/04:30pm 35.7 32.5 11.9 23 14.2 NE 20 24 11 13 - - 0.0
07/04:20pm 36.1 33.1 12.4 24 14.3 NE 20 24 11 13 - - 0.0
07/04:10pm 36.5 32.8 12.6 23 14.5 NE 24 28 13 15 - - 0.0
07/04:00pm 37.5 35.5 12.6 22 15.1 ENE 15 26 8 14 - - 0.0
07/03:50pm 37.2 35.5 13.7 24 14.5 NNE 15 22 8 12 - - 0.0
07/03:40pm 37.1 34.3 13.2 24 14.6 NNE 20 26 11 14 - - 0.0
07/03:30pm 36.5 34.3 13.2 24 14.2 NNE 17 20 9 11 - - 0.0
07/03:20pm 36.6 33.1 13.5 25 14.2 NE 24 28 13 15 - - 0.0
07/03:10pm 37.8 36.5 14.9 25 14.4 N 15 24 8 13 - - 0.0
07/03:00pm 37.9 37.2 13.3 23 15.1 NE 9 17 5 9 - - 0.0
07/02:50pm 37.4 33.4 14.0 24 14.5 ENE 28 33 15 18 - - 0.0
07/02:40pm 37.6 35.0 13.9 24 14.7 NE 20 35 11 19 - - 0.0
07/02:30pm 37.8 35.6 13.4 23 15.0 ENE 17 28 9 15 - - 0.0
07/02:20pm 37.5 34.3 14.3 25 14.4 ENE 24 30 13 16 - - 0.0
07/02:10pm 37.8 35.4 13.7 23 14.9 E 19 24 10 13 - - 0.0
07/02:00pm 37.8 35.9 14.1 24 14.7 E 17 28 9 15 - - 0.0

Other formats

Comma delimited format used in spreadsheet applications
http://www.bom.gov.au/fwo/IDW60801/IDW60801.99460.axf

JavaScript Object Notation format (JSON) in row-major order
http://www.bom.gov.au/fwo/IDW60801/IDW60801.99460.json

Data quality

Most of these data are generated automatically and are frequently updated. Quality checks on data are not normally performed. It is possible for incorrect values to appear. Refer to information at About Latest Weather Observations and please check the disclaimer before using these data.